sensor_id;sensor_type;location;lat;lon;timestamp;P1;durP1;ratioP1;P2;durP2;ratioP2
69596;SDS011;70000;51.176;-115.568;2024-02-21T00:01:32;4.90;;;1.70;;
69596;SDS011;70000;51.176;-115.568;2024-02-21T00:04:01;4.40;;;1.80;;
69596;SDS011;70000;51.176;-115.568;2024-02-21T00:06:30;4.10;;;1.40;;
69596;SDS011;70000;51.176;-115.568;2024-02-21T00:09:00;5.20;;;1.90;;
69596;SDS011;70000;51.176;-115.568;2024-02-21T00:11:29;4.60;;;1.60;;
69596;SDS011;70000;51.176;-115.568;2024-02-21T00:13:58;6.20;;;1.40;;
69596;SDS011;70000;51.176;-115.568;2024-02-21T00:16:27;4.00;;;1.20;;
69596;SDS011;70000;51.176;-115.568;2024-02-21T00:18:56;4.80;;;1.60;;
69596;SDS011;70000;51.176;-115.568;2024-02-21T00:21:25;5.50;;;2.00;;
69596;SDS011;70000;51.176;-115.568;2024-02-21T00:23:54;5.60;;;2.30;;
69596;SDS011;70000;51.176;-115.568;2024-02-21T00:26:23;6.20;;;2.10;;
69596;SDS011;70000;51.176;-115.568;2024-02-21T00:28:52;5.70;;;2.20;;
69596;SDS011;70000;51.176;-115.568;2024-02-21T00:31:21;5.10;;;1.80;;
69596;SDS011;70000;51.176;-115.568;2024-02-21T00:33:50;5.60;;;2.00;;
69596;SDS011;70000;51.176;-115.568;2024-02-21T00:36:19;6.40;;;2.10;;
69596;SDS011;70000;51.176;-115.568;2024-02-21T00:38:48;6.10;;;2.20;;
69596;SDS011;70000;51.176;-115.568;2024-02-21T00:41:33;5.80;;;2.20;;
69596;SDS011;70000;51.176;-115.568;2024-02-21T00:44:02;4.10;;;1.40;;
69596;SDS011;70000;51.176;-115.568;2024-02-21T00:46:33;4.60;;;1.60;;
69596;SDS011;70000;51.176;-115.568;2024-02-21T00:49:02;5.10;;;1.80;;
69596;SDS011;70000;51.176;-115.568;2024-02-21T00:51:31;6.40;;;2.50;;
69596;SDS011;70000;51.176;-115.568;2024-02-21T00:54:00;5.40;;;2.00;;
69596;SDS011;70000;51.176;-115.568;2024-02-21T00:56:29;4.70;;;1.80;;
69596;SDS011;70000;51.176;-115.568;2024-02-21T00:58:59;4.70;;;1.70;;
69596;SDS011;70000;51.176;-115.568;2024-02-21T01:01:28;5.50;;;2.30;;
69596;SDS011;70000;51.176;-115.568;2024-02-21T01:03:57;5.20;;;2.10;;
69596;SDS011;70000;51.176;-115.568;2024-02-21T01:06:28;5.00;;;2.00;;
69596;SDS011;70000;51.176;-115.568;2024-02-21T01:08:58;5.40;;;2.10;;
69596;SDS011;70000;51.176;-115.568;2024-02-21T01:11:27;5.20;;;1.60;;
69596;SDS011;70000;51.176;-115.568;2024-02-21T01:13:56;5.60;;;2.60;;
69596;SDS011;70000;51.176;-115.568;2024-02-21T01:16:26;4.80;;;1.70;;
69596;SDS011;70000;51.176;-115.568;2024-02-21T01:18:54;5.70;;;1.70;;
69596;SDS011;70000;51.176;-115.568;2024-02-21T01:21:23;5.20;;;1.80;;
69596;SDS011;70000;51.176;-115.568;2024-02-21T01:23:52;4.70;;;1.70;;
69596;SDS011;70000;51.176;-115.568;2024-02-21T01:26:21;5.40;;;2.40;;
69596;SDS011;70000;51.176;-115.568;2024-02-21T01:28:50;5.70;;;3.00;;
69596;SDS011;70000;51.176;-115.568;2024-02-21T01:31:20;5.90;;;2.10;;
69596;SDS011;70000;51.176;-115.568;2024-02-21T01:33:49;8.10;;;3.50;;
69596;SDS011;70000;51.176;-115.568;2024-02-21T01:36:18;6.70;;;2.50;;
69596;SDS011;70000;51.176;-115.568;2024-02-21T01:38:50;6.00;;;2.50;;
69596;SDS011;70000;51.176;-115.568;2024-02-21T01:41:19;5.20;;;2.10;;
69596;SDS011;70000;51.176;-115.568;2024-02-21T01:43:48;5.30;;;1.70;;
69596;SDS011;70000;51.176;-115.568;2024-02-21T01:46:18;5.10;;;2.10;;
69596;SDS011;70000;51.176;-115.568;2024-02-21T01:48:47;6.20;;;2.40;;
69596;SDS011;70000;51.176;-115.568;2024-02-21T01:51:16;7.10;;;2.80;;
69596;SDS011;70000;51.176;-115.568;2024-02-21T01:53:50;8.70;;;3.80;;
69596;SDS011;70000;51.176;-115.568;2024-02-21T01:56:38;13.40;;;6.00;;
69596;SDS011;70000;51.176;-115.568;2024-02-21T01:59:08;8.80;;;3.90;;
69596;SDS011;70000;51.176;-115.568;2024-02-21T02:01:37;8.30;;;4.00;;
69596;SDS011;70000;51.176;-115.568;2024-02-21T02:04:07;7.20;;;3.20;;
69596;SDS011;70000;51.176;-115.568;2024-02-21T02:06:37;6.00;;;2.70;;
69596;SDS011;70000;51.176;-115.568;2024-02-21T02:09:06;7.60;;;3.20;;
69596;SDS011;70000;51.176;-115.568;2024-02-21T02:11:35;6.40;;;2.30;;
69596;SDS011;70000;51.176;-115.568;2024-02-21T02:14:05;6.00;;;2.10;;
69596;SDS011;70000;51.176;-115.568;2024-02-21T02:16:34;5.80;;;2.30;;
69596;SDS011;70000;51.176;-115.568;2024-02-21T02:19:03;6.70;;;2.70;;
69596;SDS011;70000;51.176;-115.568;2024-02-21T02:21:45;6.50;;;2.50;;
69596;SDS011;70000;51.176;-115.568;2024-02-21T02:24:23;6.60;;;2.50;;
69596;SDS011;70000;51.176;-115.568;2024-02-21T02:27:10;5.60;;;1.90;;
69596;SDS011;70000;51.176;-115.568;2024-02-21T02:29:39;5.80;;;2.10;;
69596;SDS011;70000;51.176;-115.568;2024-02-21T02:32:08;6.20;;;2.20;;
69596;SDS011;70000;51.176;-115.568;2024-02-21T02:34:38;6.80;;;3.00;;
69596;SDS011;70000;51.176;-115.568;2024-02-21T02:37:06;7.90;;;3.40;;
69596;SDS011;70000;51.176;-115.568;2024-02-21T02:39:35;6.30;;;2.70;;
69596;SDS011;70000;51.176;-115.568;2024-02-21T02:42:05;6.30;;;2.80;;
69596;SDS011;70000;51.176;-115.568;2024-02-21T02:44:34;6.00;;;2.50;;
69596;SDS011;70000;51.176;-115.568;2024-02-21T02:47:03;5.90;;;2.40;;
69596;SDS011;70000;51.176;-115.568;2024-02-21T02:49:32;6.10;;;2.40;;
69596;SDS011;70000;51.176;-115.568;2024-02-21T02:52:02;6.50;;;2.80;;
69596;SDS011;70000;51.176;-115.568;2024-02-21T02:54:32;6.60;;;2.80;;
69596;SDS011;70000;51.176;-115.568;2024-02-21T02:57:01;6.80;;;2.90;;
69596;SDS011;70000;51.176;-115.568;2024-02-21T02:59:32;6.90;;;3.20;;
69596;SDS011;70000;51.176;-115.568;2024-02-21T03:05:17;6.30;;;2.40;;
69596;SDS011;70000;51.176;-115.568;2024-02-21T03:07:48;6.10;;;2.50;;
69596;SDS011;70000;51.176;-115.568;2024-02-21T03:10:21;5.80;;;2.40;;
69596;SDS011;70000;51.176;-115.568;2024-02-21T03:12:50;6.50;;;2.60;;
69596;SDS011;70000;51.176;-115.568;2024-02-21T03:15:21;7.20;;;3.00;;
69596;SDS011;70000;51.176;-115.568;2024-02-21T03:17:52;7.60;;;2.80;;
69596;SDS011;70000;51.176;-115.568;2024-02-21T03:20:22;6.50;;;2.60;;
69596;SDS011;70000;51.176;-115.568;2024-02-21T03:22:51;6.10;;;2.30;;
69596;SDS011;70000;51.176;-115.568;2024-02-21T03:25:20;5.50;;;2.10;;
69596;SDS011;70000;51.176;-115.568;2024-02-21T03:27:49;6.00;;;3.00;;
69596;SDS011;70000;51.176;-115.568;2024-02-21T03:30:19;7.70;;;3.10;;
69596;SDS011;70000;51.176;-115.568;2024-02-21T03:32:49;7.00;;;3.20;;
69596;SDS011;70000;51.176;-115.568;2024-02-21T03:35:18;7.00;;;3.40;;
69596;SDS011;70000;51.176;-115.568;2024-02-21T03:37:47;9.10;;;3.80;;
69596;SDS011;70000;51.176;-115.568;2024-02-21T03:40:16;7.30;;;3.60;;
69596;SDS011;70000;51.176;-115.568;2024-02-21T03:42:45;6.00;;;2.50;;
69596;SDS011;70000;51.176;-115.568;2024-02-21T03:45:17;5.60;;;2.00;;
69596;SDS011;70000;51.176;-115.568;2024-02-21T03:47:46;5.00;;;1.90;;
69596;SDS011;70000;51.176;-115.568;2024-02-21T03:50:17;5.50;;;2.10;;
69596;SDS011;70000;51.176;-115.568;2024-02-21T03:52:46;5.80;;;2.60;;
69596;SDS011;70000;51.176;-115.568;2024-02-21T03:58:22;7.00;;;2.70;;
69596;SDS011;70000;51.176;-115.568;2024-02-21T04:00:51;6.40;;;2.80;;
69596;SDS011;70000;51.176;-115.568;2024-02-21T04:03:20;6.30;;;2.00;;
69596;SDS011;70000;51.176;-115.568;2024-02-21T04:05:49;9.10;;;3.00;;
69596;SDS011;70000;51.176;-115.568;2024-02-21T04:08:18;5.30;;;2.30;;
69596;SDS011;70000;51.176;-115.568;2024-02-21T04:10:47;4.70;;;1.60;;
69596;SDS011;70000;51.176;-115.568;2024-02-21T04:13:17;4.70;;;1.80;;
69596;SDS011;70000;51.176;-115.568;2024-02-21T04:15:46;4.90;;;1.70;;
69596;SDS011;70000;51.176;-115.568;2024-02-21T04:18:15;5.40;;;2.00;;
69596;SDS011;70000;51.176;-115.568;2024-02-21T04:20:44;5.90;;;2.50;;
69596;SDS011;70000;51.176;-115.568;2024-02-21T04:23:13;4.90;;;2.00;;
69596;SDS011;70000;51.176;-115.568;2024-02-21T04:25:43;5.10;;;2.30;;
69596;SDS011;70000;51.176;-115.568;2024-02-21T04:28:12;4.60;;;1.70;;
69596;SDS011;70000;51.176;-115.568;2024-02-21T04:30:41;4.80;;;1.60;;
69596;SDS011;70000;51.176;-115.568;2024-02-21T04:33:10;4.70;;;1.80;;
69596;SDS011;70000;51.176;-115.568;2024-02-21T04:35:40;4.50;;;1.80;;
69596;SDS011;70000;51.176;-115.568;2024-02-21T04:38:09;5.20;;;1.70;;
69596;SDS011;70000;51.176;-115.568;2024-02-21T04:40:38;5.70;;;2.20;;
69596;SDS011;70000;51.176;-115.568;2024-02-21T04:43:07;4.90;;;1.70;;
69596;SDS011;70000;51.176;-115.568;2024-02-21T04:45:38;5.00;;;2.10;;
69596;SDS011;70000;51.176;-115.568;2024-02-21T04:48:07;4.60;;;1.90;;
69596;SDS011;70000;51.176;-115.568;2024-02-21T04:50:36;5.10;;;1.90;;
69596;SDS011;70000;51.176;-115.568;2024-02-21T04:53:05;4.50;;;1.50;;
69596;SDS011;70000;51.176;-115.568;2024-02-21T04:55:34;4.00;;;1.40;;
69596;SDS011;70000;51.176;-115.568;2024-02-21T04:58:04;4.20;;;1.60;;
69596;SDS011;70000;51.176;-115.568;2024-02-21T05:00:33;4.10;;;1.50;;
69596;SDS011;70000;51.176;-115.568;2024-02-21T05:03:02;4.20;;;1.40;;
69596;SDS011;70000;51.176;-115.568;2024-02-21T05:05:32;4.60;;;1.70;;
69596;SDS011;70000;51.176;-115.568;2024-02-21T05:08:01;4.70;;;1.30;;
69596;SDS011;70000;51.176;-115.568;2024-02-21T05:10:31;4.00;;;1.50;;
69596;SDS011;70000;51.176;-115.568;2024-02-21T05:13:01;5.20;;;2.10;;
69596;SDS011;70000;51.176;-115.568;2024-02-21T05:15:31;4.20;;;1.40;;
69596;SDS011;70000;51.176;-115.568;2024-02-21T05:18:07;4.80;;;1.50;;
69596;SDS011;70000;51.176;-115.568;2024-02-21T05:20:43;4.30;;;1.60;;
69596;SDS011;70000;51.176;-115.568;2024-02-21T05:23:15;4.30;;;1.60;;
69596;SDS011;70000;51.176;-115.568;2024-02-21T05:25:46;4.80;;;1.80;;
69596;SDS011;70000;51.176;-115.568;2024-02-21T05:28:19;4.00;;;1.40;;
69596;SDS011;70000;51.176;-115.568;2024-02-21T05:30:48;4.40;;;1.70;;
69596;SDS011;70000;51.176;-115.568;2024-02-21T05:33:28;4.10;;;1.30;;
69596;SDS011;70000;51.176;-115.568;2024-02-21T05:36:00;4.40;;;1.40;;
69596;SDS011;70000;51.176;-115.568;2024-02-21T05:38:34;4.70;;;1.70;;
69596;SDS011;70000;51.176;-115.568;2024-02-21T05:41:05;4.70;;;1.60;;
69596;SDS011;70000;51.176;-115.568;2024-02-21T05:43:38;4.70;;;1.40;;
69596;SDS011;70000;51.176;-115.568;2024-02-21T05:46:21;4.60;;;1.10;;
69596;SDS011;70000;51.176;-115.568;2024-02-21T05:48:53;4.40;;;1.30;;
69596;SDS011;70000;51.176;-115.568;2024-02-21T05:51:23;3.70;;;1.10;;
69596;SDS011;70000;51.176;-115.568;2024-02-21T05:53:52;3.80;;;0.90;;
69596;SDS011;70000;51.176;-115.568;2024-02-21T05:56:22;4.50;;;1.50;;
69596;SDS011;70000;51.176;-115.568;2024-02-21T05:58:51;5.10;;;1.80;;
69596;SDS011;70000;51.176;-115.568;2024-02-21T06:01:24;4.10;;;1.60;;
69596;SDS011;70000;51.176;-115.568;2024-02-21T06:03:57;4.30;;;1.60;;
69596;SDS011;70000;51.176;-115.568;2024-02-21T06:06:26;3.90;;;1.50;;
69596;SDS011;70000;51.176;-115.568;2024-02-21T06:08:55;3.70;;;1.20;;
69596;SDS011;70000;51.176;-115.568;2024-02-21T06:14:30;4.50;;;1.60;;
69596;SDS011;70000;51.176;-115.568;2024-02-21T06:16:59;4.40;;;1.40;;
69596;SDS011;70000;51.176;-115.568;2024-02-21T06:19:29;4.70;;;1.80;;
69596;SDS011;70000;51.176;-115.568;2024-02-21T06:21:58;4.10;;;1.40;;
69596;SDS011;70000;51.176;-115.568;2024-02-21T06:24:27;4.00;;;1.20;;
69596;SDS011;70000;51.176;-115.568;2024-02-21T06:26:58;5.10;;;1.80;;
69596;SDS011;70000;51.176;-115.568;2024-02-21T06:29:37;4.50;;;1.60;;
69596;SDS011;70000;51.176;-115.568;2024-02-21T06:32:06;4.50;;;1.80;;
69596;SDS011;70000;51.176;-115.568;2024-02-21T06:34:38;4.40;;;1.40;;
69596;SDS011;70000;51.176;-115.568;2024-02-21T06:37:32;4.30;;;1.40;;
69596;SDS011;70000;51.176;-115.568;2024-02-21T06:40:01;4.30;;;1.50;;
69596;SDS011;70000;51.176;-115.568;2024-02-21T06:42:31;4.10;;;1.30;;
69596;SDS011;70000;51.176;-115.568;2024-02-21T06:45:01;4.60;;;1.60;;
69596;SDS011;70000;51.176;-115.568;2024-02-21T06:47:47;4.40;;;1.50;;
69596;SDS011;70000;51.176;-115.568;2024-02-21T06:50:19;4.60;;;1.60;;
69596;SDS011;70000;51.176;-115.568;2024-02-21T06:52:48;4.40;;;1.40;;
69596;SDS011;70000;51.176;-115.568;2024-02-21T06:55:17;4.70;;;1.60;;
69596;SDS011;70000;51.176;-115.568;2024-02-21T06:57:47;4.40;;;1.50;;
69596;SDS011;70000;51.176;-115.568;2024-02-21T07:00:16;4.40;;;1.50;;
69596;SDS011;70000;51.176;-115.568;2024-02-21T07:02:54;5.50;;;1.40;;
69596;SDS011;70000;51.176;-115.568;2024-02-21T07:05:23;4.10;;;1.40;;
69596;SDS011;70000;51.176;-115.568;2024-02-21T07:07:58;4.20;;;1.40;;
69596;SDS011;70000;51.176;-115.568;2024-02-21T07:23:57;5.10;;;1.80;;
69596;SDS011;70000;51.176;-115.568;2024-02-21T07:26:26;4.60;;;1.60;;
69596;SDS011;70000;51.176;-115.568;2024-02-21T07:28:56;4.80;;;1.60;;
69596;SDS011;70000;51.176;-115.568;2024-02-21T07:31:25;4.30;;;1.50;;
69596;SDS011;70000;51.176;-115.568;2024-02-21T07:33:54;4.80;;;1.80;;
69596;SDS011;70000;51.176;-115.568;2024-02-21T07:36:30;4.70;;;1.70;;
69596;SDS011;70000;51.176;-115.568;2024-02-21T07:38:59;4.30;;;1.40;;
69596;SDS011;70000;51.176;-115.568;2024-02-21T07:41:28;4.50;;;1.60;;
69596;SDS011;70000;51.176;-115.568;2024-02-21T07:43:58;4.60;;;1.60;;
69596;SDS011;70000;51.176;-115.568;2024-02-21T07:46:27;4.50;;;1.50;;
69596;SDS011;70000;51.176;-115.568;2024-02-21T07:48:56;4.50;;;1.40;;
69596;SDS011;70000;51.176;-115.568;2024-02-21T07:51:28;4.40;;;1.50;;
69596;SDS011;70000;51.176;-115.568;2024-02-21T07:54:14;4.60;;;1.70;;
69596;SDS011;70000;51.176;-115.568;2024-02-21T07:56:45;4.60;;;1.60;;
69596;SDS011;70000;51.176;-115.568;2024-02-21T07:59:15;4.80;;;1.90;;
69596;SDS011;70000;51.176;-115.568;2024-02-21T08:01:44;4.40;;;1.40;;
69596;SDS011;70000;51.176;-115.568;2024-02-21T08:04:16;5.00;;;1.70;;
69596;SDS011;70000;51.176;-115.568;2024-02-21T08:06:45;4.20;;;1.30;;
69596;SDS011;70000;51.176;-115.568;2024-02-21T08:12:29;4.80;;;1.80;;
69596;SDS011;70000;51.176;-115.568;2024-02-21T08:15:01;4.80;;;1.70;;
69596;SDS011;70000;51.176;-115.568;2024-02-21T08:17:37;5.10;;;2.00;;
69596;SDS011;70000;51.176;-115.568;2024-02-21T08:20:06;5.40;;;1.60;;
69596;SDS011;70000;51.176;-115.568;2024-02-21T08:25:49;4.80;;;1.70;;
69596;SDS011;70000;51.176;-115.568;2024-02-21T08:28:20;5.30;;;1.60;;
69596;SDS011;70000;51.176;-115.568;2024-02-21T08:30:49;4.40;;;1.50;;
69596;SDS011;70000;51.176;-115.568;2024-02-21T08:33:18;4.80;;;1.70;;
69596;SDS011;70000;51.176;-115.568;2024-02-21T08:35:55;4.60;;;1.50;;
69596;SDS011;70000;51.176;-115.568;2024-02-21T08:38:24;4.60;;;1.80;;
69596;SDS011;70000;51.176;-115.568;2024-02-21T08:40:53;5.10;;;1.90;;
69596;SDS011;70000;51.176;-115.568;2024-02-21T08:43:22;5.00;;;2.10;;
69596;SDS011;70000;51.176;-115.568;2024-02-21T08:45:54;5.40;;;2.00;;
69596;SDS011;70000;51.176;-115.568;2024-02-21T08:48:23;4.90;;;1.80;;
69596;SDS011;70000;51.176;-115.568;2024-02-21T08:50:59;4.50;;;1.60;;
69596;SDS011;70000;51.176;-115.568;2024-02-21T08:53:28;4.60;;;1.60;;
69596;SDS011;70000;51.176;-115.568;2024-02-21T08:55:57;5.30;;;2.00;;
69596;SDS011;70000;51.176;-115.568;2024-02-21T08:58:27;4.50;;;1.50;;
69596;SDS011;70000;51.176;-115.568;2024-02-21T09:00:56;5.10;;;1.40;;
69596;SDS011;70000;51.176;-115.568;2024-02-21T09:03:25;4.30;;;1.60;;
69596;SDS011;70000;51.176;-115.568;2024-02-21T09:05:54;4.60;;;1.70;;
69596;SDS011;70000;51.176;-115.568;2024-02-21T09:08:23;5.10;;;1.90;;
69596;SDS011;70000;51.176;-115.568;2024-02-21T09:10:53;4.70;;;1.70;;
69596;SDS011;70000;51.176;-115.568;2024-02-21T09:13:22;4.90;;;2.00;;
69596;SDS011;70000;51.176;-115.568;2024-02-21T09:19:21;4.70;;;1.50;;
69596;SDS011;70000;51.176;-115.568;2024-02-21T09:21:50;4.90;;;1.50;;
69596;SDS011;70000;51.176;-115.568;2024-02-21T09:24:18;5.30;;;1.90;;
69596;SDS011;70000;51.176;-115.568;2024-02-21T09:26:47;5.20;;;1.80;;
69596;SDS011;70000;51.176;-115.568;2024-02-21T09:29:15;4.80;;;1.90;;
69596;SDS011;70000;51.176;-115.568;2024-02-21T09:31:44;5.40;;;2.20;;
69596;SDS011;70000;51.176;-115.568;2024-02-21T09:34:13;5.00;;;1.90;;
69596;SDS011;70000;51.176;-115.568;2024-02-21T09:36:41;5.30;;;1.80;;
69596;SDS011;70000;51.176;-115.568;2024-02-21T09:39:10;4.90;;;1.90;;
69596;SDS011;70000;51.176;-115.568;2024-02-21T09:41:52;5.20;;;2.20;;
69596;SDS011;70000;51.176;-115.568;2024-02-21T09:44:36;5.10;;;1.90;;
69596;SDS011;70000;51.176;-115.568;2024-02-21T09:47:10;4.70;;;1.70;;
69596;SDS011;70000;51.176;-115.568;2024-02-21T09:49:48;4.60;;;1.80;;
69596;SDS011;70000;51.176;-115.568;2024-02-21T09:52:17;4.70;;;1.70;;
69596;SDS011;70000;51.176;-115.568;2024-02-21T09:54:48;5.20;;;1.90;;
69596;SDS011;70000;51.176;-115.568;2024-02-21T09:57:16;4.90;;;1.90;;
69596;SDS011;70000;51.176;-115.568;2024-02-21T09:59:45;5.00;;;1.80;;
69596;SDS011;70000;51.176;-115.568;2024-02-21T10:02:13;5.10;;;1.50;;
69596;SDS011;70000;51.176;-115.568;2024-02-21T10:04:41;4.80;;;1.90;;
69596;SDS011;70000;51.176;-115.568;2024-02-21T10:07:11;4.40;;;1.70;;
69596;SDS011;70000;51.176;-115.568;2024-02-21T10:09:40;4.80;;;1.70;;
69596;SDS011;70000;51.176;-115.568;2024-02-21T10:12:10;4.40;;;1.50;;
69596;SDS011;70000;51.176;-115.568;2024-02-21T10:14:40;4.90;;;1.80;;
69596;SDS011;70000;51.176;-115.568;2024-02-21T10:17:14;4.20;;;1.70;;
69596;SDS011;70000;51.176;-115.568;2024-02-21T10:19:46;4.80;;;1.90;;
69596;SDS011;70000;51.176;-115.568;2024-02-21T10:22:15;4.50;;;1.70;;
69596;SDS011;70000;51.176;-115.568;2024-02-21T10:24:45;4.80;;;1.80;;
69596;SDS011;70000;51.176;-115.568;2024-02-21T10:27:13;4.70;;;1.70;;
69596;SDS011;70000;51.176;-115.568;2024-02-21T10:29:41;4.70;;;1.90;;
69596;SDS011;70000;51.176;-115.568;2024-02-21T10:32:13;5.70;;;1.90;;
69596;SDS011;70000;51.176;-115.568;2024-02-21T10:34:43;5.00;;;1.80;;
69596;SDS011;70000;51.176;-115.568;2024-02-21T10:37:13;4.80;;;1.50;;
69596;SDS011;70000;51.176;-115.568;2024-02-21T10:39:41;4.90;;;1.80;;
69596;SDS011;70000;51.176;-115.568;2024-02-21T10:42:16;4.90;;;1.80;;
69596;SDS011;70000;51.176;-115.568;2024-02-21T10:44:51;5.50;;;2.00;;
69596;SDS011;70000;51.176;-115.568;2024-02-21T10:47:23;4.40;;;1.80;;
69596;SDS011;70000;51.176;-115.568;2024-02-21T10:50:03;5.10;;;1.80;;
69596;SDS011;70000;51.176;-115.568;2024-02-21T10:52:49;4.40;;;1.50;;
69596;SDS011;70000;51.176;-115.568;2024-02-21T10:55:35;5.00;;;1.80;;
69596;SDS011;70000;51.176;-115.568;2024-02-21T10:58:11;5.00;;;1.80;;
69596;SDS011;70000;51.176;-115.568;2024-02-21T11:00:44;4.80;;;1.80;;
69596;SDS011;70000;51.176;-115.568;2024-02-21T11:03:13;5.00;;;1.60;;
69596;SDS011;70000;51.176;-115.568;2024-02-21T11:05:41;4.70;;;1.70;;
69596;SDS011;70000;51.176;-115.568;2024-02-21T11:08:13;4.90;;;1.60;;
69596;SDS011;70000;51.176;-115.568;2024-02-21T11:10:46;5.10;;;1.70;;
69596;SDS011;70000;51.176;-115.568;2024-02-21T11:13:14;4.60;;;1.60;;
69596;SDS011;70000;51.176;-115.568;2024-02-21T11:15:43;4.90;;;1.70;;
69596;SDS011;70000;51.176;-115.568;2024-02-21T11:21:39;5.00;;;1.90;;
69596;SDS011;70000;51.176;-115.568;2024-02-21T11:24:08;4.50;;;1.50;;
69596;SDS011;70000;51.176;-115.568;2024-02-21T11:30:12;4.40;;;1.50;;
69596;SDS011;70000;51.176;-115.568;2024-02-21T11:32:42;5.10;;;1.80;;
69596;SDS011;70000;51.176;-115.568;2024-02-21T11:35:19;4.10;;;1.40;;
69596;SDS011;70000;51.176;-115.568;2024-02-21T11:37:49;5.20;;;1.80;;
69596;SDS011;70000;51.176;-115.568;2024-02-21T11:40:18;5.80;;;1.90;;
69596;SDS011;70000;51.176;-115.568;2024-02-21T11:42:47;4.80;;;1.70;;
69596;SDS011;70000;51.176;-115.568;2024-02-21T11:45:16;4.80;;;1.60;;
69596;SDS011;70000;51.176;-115.568;2024-02-21T11:47:48;4.70;;;1.80;;
69596;SDS011;70000;51.176;-115.568;2024-02-21T11:50:17;5.00;;;1.90;;
69596;SDS011;70000;51.176;-115.568;2024-02-21T11:52:48;5.10;;;1.70;;
69596;SDS011;70000;51.176;-115.568;2024-02-21T11:55:17;4.80;;;1.40;;
69596;SDS011;70000;51.176;-115.568;2024-02-21T11:57:48;4.60;;;1.60;;
69596;SDS011;70000;51.176;-115.568;2024-02-21T12:00:18;3.90;;;1.30;;
69596;SDS011;70000;51.176;-115.568;2024-02-21T12:02:50;4.80;;;1.80;;
69596;SDS011;70000;51.176;-115.568;2024-02-21T12:05:19;4.50;;;1.50;;
69596;SDS011;70000;51.176;-115.568;2024-02-21T12:07:49;5.50;;;1.90;;
69596;SDS011;70000;51.176;-115.568;2024-02-21T12:10:18;4.90;;;2.10;;
69596;SDS011;70000;51.176;-115.568;2024-02-21T12:12:48;4.40;;;1.50;;
69596;SDS011;70000;51.176;-115.568;2024-02-21T12:15:20;4.30;;;1.40;;
69596;SDS011;70000;51.176;-115.568;2024-02-21T12:17:49;4.70;;;1.60;;
69596;SDS011;70000;51.176;-115.568;2024-02-21T12:20:20;5.10;;;1.90;;
69596;SDS011;70000;51.176;-115.568;2024-02-21T12:22:49;4.40;;;1.60;;
69596;SDS011;70000;51.176;-115.568;2024-02-21T12:25:22;4.00;;;1.30;;
69596;SDS011;70000;51.176;-115.568;2024-02-21T12:27:52;5.00;;;1.80;;
69596;SDS011;70000;51.176;-115.568;2024-02-21T12:30:21;5.10;;;1.80;;
69596;SDS011;70000;51.176;-115.568;2024-02-21T12:32:50;4.40;;;1.50;;
69596;SDS011;70000;51.176;-115.568;2024-02-21T12:35:19;4.90;;;1.80;;
69596;SDS011;70000;51.176;-115.568;2024-02-21T12:37:49;4.30;;;1.50;;
69596;SDS011;70000;51.176;-115.568;2024-02-21T12:40:18;4.50;;;1.40;;
69596;SDS011;70000;51.176;-115.568;2024-02-21T12:42:47;4.60;;;1.70;;
69596;SDS011;70000;51.176;-115.568;2024-02-21T12:45:16;5.10;;;1.80;;
69596;SDS011;70000;51.176;-115.568;2024-02-21T12:47:45;4.60;;;1.50;;
69596;SDS011;70000;51.176;-115.568;2024-02-21T12:50:15;4.90;;;1.70;;
69596;SDS011;70000;51.176;-115.568;2024-02-21T12:52:44;4.80;;;1.60;;
69596;SDS011;70000;51.176;-115.568;2024-02-21T12:55:13;4.40;;;1.60;;
69596;SDS011;70000;51.176;-115.568;2024-02-21T12:57:43;4.80;;;1.60;;
69596;SDS011;70000;51.176;-115.568;2024-02-21T13:00:13;18.80;;;5.80;;
69596;SDS011;70000;51.176;-115.568;2024-02-21T13:02:42;7.00;;;2.30;;
69596;SDS011;70000;51.176;-115.568;2024-02-21T13:05:11;4.80;;;1.60;;
69596;SDS011;70000;51.176;-115.568;2024-02-21T13:07:40;4.60;;;1.70;;
69596;SDS011;70000;51.176;-115.568;2024-02-21T13:10:10;5.10;;;1.80;;
69596;SDS011;70000;51.176;-115.568;2024-02-21T13:12:39;4.90;;;1.60;;
69596;SDS011;70000;51.176;-115.568;2024-02-21T13:15:08;4.70;;;1.40;;
69596;SDS011;70000;51.176;-115.568;2024-02-21T13:17:40;5.00;;;1.70;;
69596;SDS011;70000;51.176;-115.568;2024-02-21T13:20:09;4.20;;;1.40;;
69596;SDS011;70000;51.176;-115.568;2024-02-21T13:22:39;4.60;;;1.30;;
69596;SDS011;70000;51.176;-115.568;2024-02-21T13:25:08;4.70;;;1.80;;
69596;SDS011;70000;51.176;-115.568;2024-02-21T13:27:38;4.60;;;1.60;;
69596;SDS011;70000;51.176;-115.568;2024-02-21T13:30:08;4.50;;;1.50;;
69596;SDS011;70000;51.176;-115.568;2024-02-21T13:32:41;5.00;;;1.50;;
69596;SDS011;70000;51.176;-115.568;2024-02-21T13:35:11;5.50;;;1.70;;
69596;SDS011;70000;51.176;-115.568;2024-02-21T13:37:41;4.40;;;1.40;;
69596;SDS011;70000;51.176;-115.568;2024-02-21T13:40:10;4.70;;;1.60;;
69596;SDS011;70000;51.176;-115.568;2024-02-21T13:42:41;5.20;;;1.70;;
69596;SDS011;70000;51.176;-115.568;2024-02-21T13:45:11;4.80;;;1.70;;
69596;SDS011;70000;51.176;-115.568;2024-02-21T13:56:33;4.10;;;1.30;;
69596;SDS011;70000;51.176;-115.568;2024-02-21T13:59:02;4.70;;;1.50;;
69596;SDS011;70000;51.176;-115.568;2024-02-21T14:01:33;4.70;;;1.50;;
69596;SDS011;70000;51.176;-115.568;2024-02-21T14:04:03;6.00;;;1.50;;
69596;SDS011;70000;51.176;-115.568;2024-02-21T14:06:32;4.40;;;1.40;;
69596;SDS011;70000;51.176;-115.568;2024-02-21T14:09:01;4.70;;;1.40;;
69596;SDS011;70000;51.176;-115.568;2024-02-21T14:11:34;4.00;;;1.10;;
69596;SDS011;70000;51.176;-115.568;2024-02-21T14:14:03;4.50;;;1.30;;
69596;SDS011;70000;51.176;-115.568;2024-02-21T14:16:33;4.50;;;1.40;;
69596;SDS011;70000;51.176;-115.568;2024-02-21T14:19:02;4.60;;;1.60;;
69596;SDS011;70000;51.176;-115.568;2024-02-21T14:25:01;4.80;;;1.50;;
69596;SDS011;70000;51.176;-115.568;2024-02-21T14:27:30;4.40;;;1.40;;
69596;SDS011;70000;51.176;-115.568;2024-02-21T14:30:01;6.10;;;1.60;;
69596;SDS011;70000;51.176;-115.568;2024-02-21T14:32:29;5.10;;;1.50;;
69596;SDS011;70000;51.176;-115.568;2024-02-21T14:34:58;4.70;;;1.50;;
69596;SDS011;70000;51.176;-115.568;2024-02-21T14:37:32;4.90;;;1.50;;
69596;SDS011;70000;51.176;-115.568;2024-02-21T14:40:00;4.50;;;1.40;;
69596;SDS011;70000;51.176;-115.568;2024-02-21T14:42:29;5.10;;;1.80;;
69596;SDS011;70000;51.176;-115.568;2024-02-21T14:44:58;4.40;;;1.60;;
69596;SDS011;70000;51.176;-115.568;2024-02-21T14:47:32;4.40;;;1.40;;
69596;SDS011;70000;51.176;-115.568;2024-02-21T14:50:02;5.10;;;1.70;;
69596;SDS011;70000;51.176;-115.568;2024-02-21T14:52:32;5.40;;;1.80;;
69596;SDS011;70000;51.176;-115.568;2024-02-21T14:55:01;4.50;;;1.40;;
69596;SDS011;70000;51.176;-115.568;2024-02-21T14:57:35;5.10;;;1.60;;
69596;SDS011;70000;51.176;-115.568;2024-02-21T15:00:09;4.80;;;1.70;;
69596;SDS011;70000;51.176;-115.568;2024-02-21T15:02:38;4.70;;;1.60;;
69596;SDS011;70000;51.176;-115.568;2024-02-21T15:05:07;4.90;;;1.70;;
69596;SDS011;70000;51.176;-115.568;2024-02-21T15:07:36;4.70;;;1.50;;
69596;SDS011;70000;51.176;-115.568;2024-02-21T15:10:05;4.80;;;1.50;;
69596;SDS011;70000;51.176;-115.568;2024-02-21T15:12:35;4.80;;;1.40;;
69596;SDS011;70000;51.176;-115.568;2024-02-21T15:15:04;4.80;;;1.40;;
69596;SDS011;70000;51.176;-115.568;2024-02-21T15:17:32;4.90;;;1.70;;
69596;SDS011;70000;51.176;-115.568;2024-02-21T15:20:04;5.10;;;1.60;;